Kezdőlap
METAR-TAF:

METAR-TAF

Repülőterek :

Fort Worth, Texas, Amerikai Egyesült Államok

földrajzi szélesség: 32-58-24N, földrajzi hosszúság: 097-19-05W, magasság: 220 m

Jelenlegi meteorológiai megfigyelések

A jelentés 23 perccel ezelõtt készült, 03:53 UTC
Dél-délkeleti szél 7 kt
Hőmérséklet 29°C
Páratartalom 55%
Légköri nyomás 1018 hPa
Látótávolság: 16.1 km
Szórványos felhőzet 25000 lábon

METAR: KAFW 220353Z 16007KT 10SM SCT250 29/19 A3007 RMK AO2 SLP166 T02940189

Idő: 23:16 (04:16 UTC)

Előrejelzés

A jelentés 1 órával és 23 perccel ezelõtt készült, 02:53 UTC
Az előrejelzés 22-én 03 óra UTC és 22-én 24 óra UTC között érvényes
Délkeleti szél 8 kt
Látótávolság: 10 km
Derült ég
22-én 1300 órától UTC szerint
Déli szél 11 kt
Látótávolság: 10 km
Szórványos felhőzet 6000 lábon

TAF: KAFW 220253Z 2203/2224 14008KT P6SM SKC FM221300 18011KT P6SM SCT060

Meteorológiai megfigyelések és előrejelzések több, mint 4000 repülőtéren (METAR és TAF jelentéseket).

A térképen piros és sárga pontok jelzik az elérhető meteorológiai állomásokat.

Mozgassa az egeret a pont fölött, hogy megjelenjen az állomás neve.

Azután kattintson az időjárási megfigyelések és előrejelzések megtekintéséhez.

A térkép megváltoztatása: kattintson a fekete keresztel jelölt zöld gombra ráközelítéshez, a vonallal jelölt zöld gombra távolításhoz, vagy a zöld nyilakra a szomszédos térképek eléréséhez.


METAR-TAF: